sensor_id;sensor_type;location;lat;lon;timestamp;P1;durP1;ratioP1;P2;durP2;ratioP2
4575;SDS011;2300;51.874;8.430;2023-09-08T00:02:22;10.90;;;9.60;;
4575;SDS011;2300;51.874;8.430;2023-09-08T00:04:51;12.13;;;9.50;;
4575;SDS011;2300;51.874;8.430;2023-09-08T00:07:18;13.77;;;9.68;;
4575;SDS011;2300;51.874;8.430;2023-09-08T00:09:45;13.00;;;8.90;;
4575;SDS011;2300;51.874;8.430;2023-09-08T00:12:12;11.65;;;9.73;;
4575;SDS011;2300;51.874;8.430;2023-09-08T00:14:40;13.20;;;9.68;;
4575;SDS011;2300;51.874;8.430;2023-09-08T00:17:07;11.73;;;9.52;;
4575;SDS011;2300;51.874;8.430;2023-09-08T00:19:36;14.63;;;10.35;;
4575;SDS011;2300;51.874;8.430;2023-09-08T00:22:09;14.02;;;10.35;;
4575;SDS011;2300;51.874;8.430;2023-09-08T00:24:36;10.70;;;9.50;;
4575;SDS011;2300;51.874;8.430;2023-09-08T00:27:03;13.57;;;10.60;;
4575;SDS011;2300;51.874;8.430;2023-09-08T00:29:30;14.00;;;10.07;;
4575;SDS011;2300;51.874;8.430;2023-09-08T00:31:57;12.98;;;10.73;;
4575;SDS011;2300;51.874;8.430;2023-09-08T00:34:25;12.45;;;10.50;;
4575;SDS011;2300;51.874;8.430;2023-09-08T00:36:54;12.73;;;10.27;;
4575;SDS011;2300;51.874;8.430;2023-09-08T00:39:23;12.07;;;10.77;;
4575;SDS011;2300;51.874;8.430;2023-09-08T00:41:50;11.85;;;10.15;;
4575;SDS011;2300;51.874;8.430;2023-09-08T00:44:17;14.07;;;9.73;;
4575;SDS011;2300;51.874;8.430;2023-09-08T00:46:43;13.77;;;10.15;;
4575;SDS011;2300;51.874;8.430;2023-09-08T00:49:10;15.32;;;10.15;;
4575;SDS011;2300;51.874;8.430;2023-09-08T00:51:38;11.85;;;10.10;;
4575;SDS011;2300;51.874;8.430;2023-09-08T00:54:06;12.90;;;10.23;;
4575;SDS011;2300;51.874;8.430;2023-09-08T00:56:35;15.43;;;10.50;;
4575;SDS011;2300;51.874;8.430;2023-09-08T00:59:03;11.88;;;10.23;;
4575;SDS011;2300;51.874;8.430;2023-09-08T01:01:31;13.07;;;9.95;;
4575;SDS011;2300;51.874;8.430;2023-09-08T01:04:00;11.85;;;10.00;;
4575;SDS011;2300;51.874;8.430;2023-09-08T01:06:28;12.75;;;10.18;;
4575;SDS011;2300;51.874;8.430;2023-09-08T01:08:57;10.52;;;9.35;;
4575;SDS011;2300;51.874;8.430;2023-09-08T01:11:25;11.95;;;9.52;;
4575;SDS011;2300;51.874;8.430;2023-09-08T01:13:57;12.52;;;9.25;;
4575;SDS011;2300;51.874;8.430;2023-09-08T01:16:24;10.82;;;9.38;;
4575;SDS011;2300;51.874;8.430;2023-09-08T01:18:51;10.95;;;9.80;;
4575;SDS011;2300;51.874;8.430;2023-09-08T01:21:41;11.20;;;9.90;;
4575;SDS011;2300;51.874;8.430;2023-09-08T01:27:58;11.30;;;10.10;;
4575;SDS011;2300;51.874;8.430;2023-09-08T01:30:28;11.68;;;10.00;;
4575;SDS011;2300;51.874;8.430;2023-09-08T01:32:57;21.88;;;15.93;;
4575;SDS011;2300;51.874;8.430;2023-09-08T01:35:25;17.45;;;13.02;;
4575;SDS011;2300;51.874;8.430;2023-09-08T01:37:51;13.10;;;11.48;;
4575;SDS011;2300;51.874;8.430;2023-09-08T01:40:18;15.48;;;10.38;;
4575;SDS011;2300;51.874;8.430;2023-09-08T01:42:45;15.40;;;11.95;;
4575;SDS011;2300;51.874;8.430;2023-09-08T01:45:13;14.55;;;10.80;;
4575;SDS011;2300;51.874;8.430;2023-09-08T01:47:40;14.50;;;11.18;;
4575;SDS011;2300;51.874;8.430;2023-09-08T01:50:08;12.30;;;10.52;;
4575;SDS011;2300;51.874;8.430;2023-09-08T01:52:35;13.00;;;10.55;;
4575;SDS011;2300;51.874;8.430;2023-09-08T01:55:02;13.38;;;10.63;;
4575;SDS011;2300;51.874;8.430;2023-09-08T01:57:30;12.10;;;10.63;;
4575;SDS011;2300;51.874;8.430;2023-09-08T01:59:57;13.70;;;10.93;;
4575;SDS011;2300;51.874;8.430;2023-09-08T02:02:27;14.60;;;10.32;;
4575;SDS011;2300;51.874;8.430;2023-09-08T02:04:54;12.48;;;10.95;;
4575;SDS011;2300;51.874;8.430;2023-09-08T02:07:20;11.77;;;10.57;;
4575;SDS011;2300;51.874;8.430;2023-09-08T02:09:47;12.77;;;9.88;;
4575;SDS011;2300;51.874;8.430;2023-09-08T02:12:15;13.75;;;10.25;;
4575;SDS011;2300;51.874;8.430;2023-09-08T02:14:44;11.48;;;10.27;;
4575;SDS011;2300;51.874;8.430;2023-09-08T02:17:11;13.25;;;10.18;;
4575;SDS011;2300;51.874;8.430;2023-09-08T02:19:42;11.05;;;9.65;;
4575;SDS011;2300;51.874;8.430;2023-09-08T02:22:09;12.13;;;9.85;;
4575;SDS011;2300;51.874;8.430;2023-09-08T02:24:37;14.85;;;10.15;;
4575;SDS011;2300;51.874;8.430;2023-09-08T02:27:04;13.15;;;10.45;;
4575;SDS011;2300;51.874;8.430;2023-09-08T02:29:31;14.50;;;10.35;;
4575;SDS011;2300;51.874;8.430;2023-09-08T02:31:58;12.75;;;10.05;;
4575;SDS011;2300;51.874;8.430;2023-09-08T02:34:25;12.95;;;10.65;;
4575;SDS011;2300;51.874;8.430;2023-09-08T02:36:55;13.90;;;10.05;;
4575;SDS011;2300;51.874;8.430;2023-09-08T02:39:23;13.43;;;9.90;;
4575;SDS011;2300;51.874;8.430;2023-09-08T02:41:53;13.65;;;9.32;;
4575;SDS011;2300;51.874;8.430;2023-09-08T02:44:20;13.88;;;10.35;;
4575;SDS011;2300;51.874;8.430;2023-09-08T02:46:47;16.35;;;10.00;;
4575;SDS011;2300;51.874;8.430;2023-09-08T02:49:14;10.63;;;9.52;;
4575;SDS011;2300;51.874;8.430;2023-09-08T02:51:42;12.45;;;9.98;;
4575;SDS011;2300;51.874;8.430;2023-09-08T02:54:15;13.45;;;9.52;;
4575;SDS011;2300;51.874;8.430;2023-09-08T02:56:42;13.82;;;10.68;;
4575;SDS011;2300;51.874;8.430;2023-09-08T02:59:12;14.82;;;9.43;;
4575;SDS011;2300;51.874;8.430;2023-09-08T03:01:39;12.05;;;10.23;;
4575;SDS011;2300;51.874;8.430;2023-09-08T03:04:06;14.90;;;10.13;;
4575;SDS011;2300;51.874;8.430;2023-09-08T03:06:34;12.55;;;10.43;;
4575;SDS011;2300;51.874;8.430;2023-09-08T03:09:01;14.05;;;9.98;;
4575;SDS011;2300;51.874;8.430;2023-09-08T03:11:31;13.88;;;10.15;;
4575;SDS011;2300;51.874;8.430;2023-09-08T03:14:03;13.98;;;10.98;;
4575;SDS011;2300;51.874;8.430;2023-09-08T03:16:31;11.82;;;9.90;;
4575;SDS011;2300;51.874;8.430;2023-09-08T03:18:57;12.98;;;10.07;;
4575;SDS011;2300;51.874;8.430;2023-09-08T03:21:24;15.30;;;10.60;;
4575;SDS011;2300;51.874;8.430;2023-09-08T03:23:51;12.43;;;9.80;;
4575;SDS011;2300;51.874;8.430;2023-09-08T03:26:17;12.70;;;10.40;;
4575;SDS011;2300;51.874;8.430;2023-09-08T03:28:45;14.35;;;10.10;;
4575;SDS011;2300;51.874;8.430;2023-09-08T03:31:16;14.73;;;10.60;;
4575;SDS011;2300;51.874;8.430;2023-09-08T03:33:43;14.07;;;9.63;;
4575;SDS011;2300;51.874;8.430;2023-09-08T03:36:10;12.73;;;9.57;;
4575;SDS011;2300;51.874;8.430;2023-09-08T03:38:37;12.43;;;9.98;;
4575;SDS011;2300;51.874;8.430;2023-09-08T03:41:06;11.10;;;9.80;;
4575;SDS011;2300;51.874;8.430;2023-09-08T03:43:36;13.27;;;9.70;;
4575;SDS011;2300;51.874;8.430;2023-09-08T03:46:05;13.00;;;9.90;;
4575;SDS011;2300;51.874;8.430;2023-09-08T03:48:32;11.77;;;9.50;;
4575;SDS011;2300;51.874;8.430;2023-09-08T03:50:59;14.02;;;10.18;;
4575;SDS011;2300;51.874;8.430;2023-09-08T03:53:25;13.60;;;10.55;;
4575;SDS011;2300;51.874;8.430;2023-09-08T03:55:52;11.73;;;9.80;;
4575;SDS011;2300;51.874;8.430;2023-09-08T03:58:18;14.48;;;9.70;;
4575;SDS011;2300;51.874;8.430;2023-09-08T04:00:45;12.63;;;9.93;;
4575;SDS011;2300;51.874;8.430;2023-09-08T04:03:13;13.40;;;9.65;;
4575;SDS011;2300;51.874;8.430;2023-09-08T04:05:40;11.85;;;9.93;;
4575;SDS011;2300;51.874;8.430;2023-09-08T04:08:06;11.02;;;9.20;;
4575;SDS011;2300;51.874;8.430;2023-09-08T04:10:36;16.20;;;9.80;;
4575;SDS011;2300;51.874;8.430;2023-09-08T04:13:02;14.52;;;9.95;;
4575;SDS011;2300;51.874;8.430;2023-09-08T04:15:29;15.73;;;10.40;;
4575;SDS011;2300;51.874;8.430;2023-09-08T04:17:56;15.88;;;9.50;;
4575;SDS011;2300;51.874;8.430;2023-09-08T04:20:25;11.07;;;9.13;;
4575;SDS011;2300;51.874;8.430;2023-09-08T04:22:51;13.40;;;9.35;;
4575;SDS011;2300;51.874;8.430;2023-09-08T04:25:18;11.50;;;8.88;;
4575;SDS011;2300;51.874;8.430;2023-09-08T04:27:47;11.05;;;9.13;;
4575;SDS011;2300;51.874;8.430;2023-09-08T04:30:13;12.05;;;9.43;;
4575;SDS011;2300;51.874;8.430;2023-09-08T04:32:40;14.35;;;9.20;;
4575;SDS011;2300;51.874;8.430;2023-09-08T04:35:08;12.63;;;9.02;;
4575;SDS011;2300;51.874;8.430;2023-09-08T04:37:36;12.77;;;9.05;;
4575;SDS011;2300;51.874;8.430;2023-09-08T04:40:04;12.25;;;9.77;;
4575;SDS011;2300;51.874;8.430;2023-09-08T04:42:32;11.38;;;9.43;;
4575;SDS011;2300;51.874;8.430;2023-09-08T04:44:58;12.52;;;9.65;;
4575;SDS011;2300;51.874;8.430;2023-09-08T04:47:25;12.13;;;9.35;;
4575;SDS011;2300;51.874;8.430;2023-09-08T04:49:52;10.32;;;9.15;;
4575;SDS011;2300;51.874;8.430;2023-09-08T04:52:18;13.43;;;9.70;;
4575;SDS011;2300;51.874;8.430;2023-09-08T04:54:47;11.65;;;9.65;;
4575;SDS011;2300;51.874;8.430;2023-09-08T04:57:14;11.70;;;9.00;;
4575;SDS011;2300;51.874;8.430;2023-09-08T04:59:40;12.05;;;9.05;;
4575;SDS011;2300;51.874;8.430;2023-09-08T05:02:08;12.13;;;9.88;;
4575;SDS011;2300;51.874;8.430;2023-09-08T05:04:35;14.25;;;9.50;;
4575;SDS011;2300;51.874;8.430;2023-09-08T05:07:01;12.15;;;9.90;;
4575;SDS011;2300;51.874;8.430;2023-09-08T05:09:28;12.73;;;9.63;;
4575;SDS011;2300;51.874;8.430;2023-09-08T05:11:57;11.90;;;9.55;;
4575;SDS011;2300;51.874;8.430;2023-09-08T05:14:25;12.88;;;9.27;;
4575;SDS011;2300;51.874;8.430;2023-09-08T05:16:51;11.98;;;9.73;;
4575;SDS011;2300;51.874;8.430;2023-09-08T05:19:20;14.40;;;9.60;;
4575;SDS011;2300;51.874;8.430;2023-09-08T05:21:49;12.45;;;9.73;;
4575;SDS011;2300;51.874;8.430;2023-09-08T05:24:16;10.50;;;8.80;;
4575;SDS011;2300;51.874;8.430;2023-09-08T05:26:46;17.05;;;9.07;;
4575;SDS011;2300;51.874;8.430;2023-09-08T05:29:14;12.57;;;9.65;;
4575;SDS011;2300;51.874;8.430;2023-09-08T05:31:42;12.90;;;9.35;;
4575;SDS011;2300;51.874;8.430;2023-09-08T05:34:10;10.48;;;8.50;;
4575;SDS011;2300;51.874;8.430;2023-09-08T05:36:37;11.45;;;8.95;;
4575;SDS011;2300;51.874;8.430;2023-09-08T05:39:05;10.95;;;8.00;;
4575;SDS011;2300;51.874;8.430;2023-09-08T05:41:32;10.27;;;8.63;;
4575;SDS011;2300;51.874;8.430;2023-09-08T05:43:59;10.85;;;8.57;;
4575;SDS011;2300;51.874;8.430;2023-09-08T05:46:28;13.88;;;9.23;;
4575;SDS011;2300;51.874;8.430;2023-09-08T05:48:54;10.38;;;8.55;;
4575;SDS011;2300;51.874;8.430;2023-09-08T05:51:21;10.00;;;8.05;;
4575;SDS011;2300;51.874;8.430;2023-09-08T05:53:48;10.82;;;8.70;;
4575;SDS011;2300;51.874;8.430;2023-09-08T05:56:15;11.45;;;7.82;;
4575;SDS011;2300;51.874;8.430;2023-09-08T05:58:41;11.55;;;8.32;;
4575;SDS011;2300;51.874;8.430;2023-09-08T06:01:08;9.60;;;7.65;;
4575;SDS011;2300;51.874;8.430;2023-09-08T06:03:36;10.98;;;8.25;;
4575;SDS011;2300;51.874;8.430;2023-09-08T06:06:03;9.18;;;7.88;;
4575;SDS011;2300;51.874;8.430;2023-09-08T06:08:30;12.35;;;9.02;;
4575;SDS011;2300;51.874;8.430;2023-09-08T06:10:57;12.23;;;9.18;;
4575;SDS011;2300;51.874;8.430;2023-09-08T06:13:24;11.77;;;8.57;;
4575;SDS011;2300;51.874;8.430;2023-09-08T06:15:51;11.55;;;8.50;;
4575;SDS011;2300;51.874;8.430;2023-09-08T06:18:18;11.00;;;8.30;;
4575;SDS011;2300;51.874;8.430;2023-09-08T06:20:46;10.02;;;8.00;;
4575;SDS011;2300;51.874;8.430;2023-09-08T06:23:13;10.88;;;8.27;;
4575;SDS011;2300;51.874;8.430;2023-09-08T06:25:40;12.48;;;8.45;;
4575;SDS011;2300;51.874;8.430;2023-09-08T06:28:09;13.50;;;8.10;;
4575;SDS011;2300;51.874;8.430;2023-09-08T06:30:35;10.52;;;8.52;;
4575;SDS011;2300;51.874;8.430;2023-09-08T06:33:06;12.57;;;8.35;;
4575;SDS011;2300;51.874;8.430;2023-09-08T06:35:33;10.05;;;8.52;;
4575;SDS011;2300;51.874;8.430;2023-09-08T06:38:02;11.60;;;8.52;;
4575;SDS011;2300;51.874;8.430;2023-09-08T06:40:29;13.38;;;8.75;;
4575;SDS011;2300;51.874;8.430;2023-09-08T06:42:56;8.77;;;7.70;;
4575;SDS011;2300;51.874;8.430;2023-09-08T06:45:23;12.30;;;8.70;;
4575;SDS011;2300;51.874;8.430;2023-09-08T06:47:49;11.02;;;8.27;;
4575;SDS011;2300;51.874;8.430;2023-09-08T06:50:19;11.70;;;8.23;;
4575;SDS011;2300;51.874;8.430;2023-09-08T06:52:46;9.80;;;8.07;;
4575;SDS011;2300;51.874;8.430;2023-09-08T06:55:15;9.63;;;8.32;;
4575;SDS011;2300;51.874;8.430;2023-09-08T06:57:41;13.70;;;8.45;;
4575;SDS011;2300;51.874;8.430;2023-09-08T07:00:10;9.57;;;7.97;;
4575;SDS011;2300;51.874;8.430;2023-09-08T07:02:37;10.98;;;7.43;;
4575;SDS011;2300;51.874;8.430;2023-09-08T07:05:04;10.48;;;8.23;;
4575;SDS011;2300;51.874;8.430;2023-09-08T07:07:33;11.02;;;7.63;;
4575;SDS011;2300;51.874;8.430;2023-09-08T07:09:59;12.20;;;7.72;;
4575;SDS011;2300;51.874;8.430;2023-09-08T07:12:28;10.40;;;8.13;;
4575;SDS011;2300;51.874;8.430;2023-09-08T07:14:55;10.85;;;8.48;;
4575;SDS011;2300;51.874;8.430;2023-09-08T07:17:22;10.70;;;7.20;;
4575;SDS011;2300;51.874;8.430;2023-09-08T07:19:49;9.65;;;7.55;;
4575;SDS011;2300;51.874;8.430;2023-09-08T07:22:16;13.15;;;6.75;;
4575;SDS011;2300;51.874;8.430;2023-09-08T07:24:43;10.52;;;6.88;;
4575;SDS011;2300;51.874;8.430;2023-09-08T07:27:10;9.02;;;6.50;;
4575;SDS011;2300;51.874;8.430;2023-09-08T07:29:40;12.57;;;7.22;;
4575;SDS011;2300;51.874;8.430;2023-09-08T07:32:07;11.18;;;6.82;;
4575;SDS011;2300;51.874;8.430;2023-09-08T07:34:34;9.07;;;7.20;;
4575;SDS011;2300;51.874;8.430;2023-09-08T07:37:01;11.27;;;7.32;;
4575;SDS011;2300;51.874;8.430;2023-09-08T07:39:27;12.50;;;7.00;;
4575;SDS011;2300;51.874;8.430;2023-09-08T07:41:55;9.80;;;6.32;;
4575;SDS011;2300;51.874;8.430;2023-09-08T07:44:22;9.57;;;6.63;;
4575;SDS011;2300;51.874;8.430;2023-09-08T07:46:50;8.82;;;6.57;;
4575;SDS011;2300;51.874;8.430;2023-09-08T07:49:16;9.15;;;6.28;;
4575;SDS011;2300;51.874;8.430;2023-09-08T07:51:44;7.55;;;6.57;;
4575;SDS011;2300;51.874;8.430;2023-09-08T07:54:11;9.23;;;6.13;;
4575;SDS011;2300;51.874;8.430;2023-09-08T07:56:39;10.32;;;6.60;;
4575;SDS011;2300;51.874;8.430;2023-09-08T07:59:06;9.70;;;6.47;;
4575;SDS011;2300;51.874;8.430;2023-09-08T08:01:33;9.50;;;6.25;;
4575;SDS011;2300;51.874;8.430;2023-09-08T08:04:01;8.70;;;6.35;;
4575;SDS011;2300;51.874;8.430;2023-09-08T08:06:28;12.07;;;6.55;;
4575;SDS011;2300;51.874;8.430;2023-09-08T08:08:55;13.15;;;6.38;;
4575;SDS011;2300;51.874;8.430;2023-09-08T08:11:22;7.03;;;5.93;;
4575;SDS011;2300;51.874;8.430;2023-09-08T08:13:50;10.18;;;5.55;;
4575;SDS011;2300;51.874;8.430;2023-09-08T08:16:17;8.82;;;6.93;;
4575;SDS011;2300;51.874;8.430;2023-09-08T08:18:47;11.52;;;6.97;;
4575;SDS011;2300;51.874;8.430;2023-09-08T08:21:15;10.32;;;6.47;;
4575;SDS011;2300;51.874;8.430;2023-09-08T08:23:41;10.80;;;6.03;;
4575;SDS011;2300;51.874;8.430;2023-09-08T08:26:08;9.45;;;7.18;;
4575;SDS011;2300;51.874;8.430;2023-09-08T08:28:35;8.32;;;6.90;;
4575;SDS011;2300;51.874;8.430;2023-09-08T08:31:01;9.93;;;6.55;;
4575;SDS011;2300;51.874;8.430;2023-09-08T08:33:28;10.57;;;6.45;;
4575;SDS011;2300;51.874;8.430;2023-09-08T08:35:55;9.25;;;6.03;;
4575;SDS011;2300;51.874;8.430;2023-09-08T08:38:24;9.02;;;6.60;;
4575;SDS011;2300;51.874;8.430;2023-09-08T08:40:51;10.05;;;6.28;;
4575;SDS011;2300;51.874;8.430;2023-09-08T08:43:17;7.30;;;5.82;;
4575;SDS011;2300;51.874;8.430;2023-09-08T08:45:44;7.45;;;5.82;;
4575;SDS011;2300;51.874;8.430;2023-09-08T08:48:13;8.93;;;6.05;;
4575;SDS011;2300;51.874;8.430;2023-09-08T08:50:41;11.32;;;5.78;;
4575;SDS011;2300;51.874;8.430;2023-09-08T08:53:09;8.35;;;5.65;;
4575;SDS011;2300;51.874;8.430;2023-09-08T08:55:39;11.05;;;5.70;;
4575;SDS011;2300;51.874;8.430;2023-09-08T08:58:07;10.45;;;5.47;;
4575;SDS011;2300;51.874;8.430;2023-09-08T09:00:35;8.50;;;5.72;;
4575;SDS011;2300;51.874;8.430;2023-09-08T09:03:04;9.60;;;5.78;;
4575;SDS011;2300;51.874;8.430;2023-09-08T09:05:32;9.80;;;5.60;;
4575;SDS011;2300;51.874;8.430;2023-09-08T09:08:01;7.78;;;5.68;;
4575;SDS011;2300;51.874;8.430;2023-09-08T09:10:29;9.10;;;5.63;;
4575;SDS011;2300;51.874;8.430;2023-09-08T09:12:58;13.23;;;6.00;;
4575;SDS011;2300;51.874;8.430;2023-09-08T09:15:28;7.18;;;5.35;;
4575;SDS011;2300;51.874;8.430;2023-09-08T09:18:01;7.03;;;5.32;;
4575;SDS011;2300;51.874;8.430;2023-09-08T09:20:29;7.53;;;5.40;;
4575;SDS011;2300;51.874;8.430;2023-09-08T09:22:57;8.93;;;6.00;;
4575;SDS011;2300;51.874;8.430;2023-09-08T09:25:25;9.40;;;5.57;;
4575;SDS011;2300;51.874;8.430;2023-09-08T09:27:53;8.02;;;5.45;;
4575;SDS011;2300;51.874;8.430;2023-09-08T09:30:21;7.28;;;5.32;;
4575;SDS011;2300;51.874;8.430;2023-09-08T09:32:57;8.52;;;5.20;;
4575;SDS011;2300;51.874;8.430;2023-09-08T09:35:29;8.77;;;5.10;;
4575;SDS011;2300;51.874;8.430;2023-09-08T09:38:06;8.57;;;5.50;;
4575;SDS011;2300;51.874;8.430;2023-09-08T09:40:33;7.53;;;5.00;;
4575;SDS011;2300;51.874;8.430;2023-09-08T09:43:00;7.60;;;5.05;;
4575;SDS011;2300;51.874;8.430;2023-09-08T09:45:30;7.60;;;5.10;;
4575;SDS011;2300;51.874;8.430;2023-09-08T09:47:57;5.45;;;4.88;;
4575;SDS011;2300;51.874;8.430;2023-09-08T09:50:28;11.70;;;5.43;;
4575;SDS011;2300;51.874;8.430;2023-09-08T09:52:57;8.30;;;4.90;;
4575;SDS011;2300;51.874;8.430;2023-09-08T09:55:24;7.07;;;4.88;;
4575;SDS011;2300;51.874;8.430;2023-09-08T09:57:52;5.82;;;4.60;;
4575;SDS011;2300;51.874;8.430;2023-09-08T10:00:22;7.97;;;5.10;;
4575;SDS011;2300;51.874;8.430;2023-09-08T10:02:51;11.48;;;5.20;;
4575;SDS011;2300;51.874;8.430;2023-09-08T10:05:19;10.80;;;5.10;;
4575;SDS011;2300;51.874;8.430;2023-09-08T10:07:46;6.88;;;4.90;;
4575;SDS011;2300;51.874;8.430;2023-09-08T10:10:13;6.82;;;4.70;;
4575;SDS011;2300;51.874;8.430;2023-09-08T10:12:41;5.78;;;4.30;;
4575;SDS011;2300;51.874;8.430;2023-09-08T10:15:09;8.52;;;4.50;;
4575;SDS011;2300;51.874;8.430;2023-09-08T10:17:37;7.10;;;4.70;;
4575;SDS011;2300;51.874;8.430;2023-09-08T10:20:08;6.20;;;4.45;;
4575;SDS011;2300;51.874;8.430;2023-09-08T10:22:38;6.60;;;4.75;;
4575;SDS011;2300;51.874;8.430;2023-09-08T10:25:08;8.05;;;4.80;;
4575;SDS011;2300;51.874;8.430;2023-09-08T10:27:38;7.43;;;4.43;;
4575;SDS011;2300;51.874;8.430;2023-09-08T10:30:05;6.22;;;5.07;;
4575;SDS011;2300;51.874;8.430;2023-09-08T10:32:33;7.63;;;5.55;;
4575;SDS011;2300;51.874;8.430;2023-09-08T10:35:03;6.53;;;4.80;;
4575;SDS011;2300;51.874;8.430;2023-09-08T10:37:32;11.40;;;5.00;;
4575;SDS011;2300;51.874;8.430;2023-09-08T10:42:47;7.75;;;4.72;;
4575;SDS011;2300;51.874;8.430;2023-09-08T10:45:14;5.93;;;4.53;;
4575;SDS011;2300;51.874;8.430;2023-09-08T10:47:54;5.93;;;4.68;;
4575;SDS011;2300;51.874;8.430;2023-09-08T10:50:26;8.43;;;4.38;;
4575;SDS011;2300;51.874;8.430;2023-09-08T10:55:48;6.55;;;4.60;;
4575;SDS011;2300;51.874;8.430;2023-09-08T10:58:18;5.82;;;4.68;;
4575;SDS011;2300;51.874;8.430;2023-09-08T11:00:46;5.82;;;4.43;;
4575;SDS011;2300;51.874;8.430;2023-09-08T11:03:25;6.90;;;3.88;;
4575;SDS011;2300;51.874;8.430;2023-09-08T11:05:54;7.57;;;4.72;;
4575;SDS011;2300;51.874;8.430;2023-09-08T11:08:25;7.07;;;4.57;;
4575;SDS011;2300;51.874;8.430;2023-09-08T11:10:52;7.72;;;4.45;;
4575;SDS011;2300;51.874;8.430;2023-09-08T11:13:19;6.50;;;4.38;;
4575;SDS011;2300;51.874;8.430;2023-09-08T11:15:46;5.05;;;4.25;;
4575;SDS011;2300;51.874;8.430;2023-09-08T11:18:13;6.05;;;4.43;;
4575;SDS011;2300;51.874;8.430;2023-09-08T11:20:40;6.85;;;4.43;;
4575;SDS011;2300;51.874;8.430;2023-09-08T11:23:08;7.50;;;4.55;;
4575;SDS011;2300;51.874;8.430;2023-09-08T11:25:36;5.78;;;4.60;;
4575;SDS011;2300;51.874;8.430;2023-09-08T11:28:04;7.47;;;4.97;;
4575;SDS011;2300;51.874;8.430;2023-09-08T11:30:32;7.57;;;5.00;;
4575;SDS011;2300;51.874;8.430;2023-09-08T11:32:59;5.50;;;4.50;;
4575;SDS011;2300;51.874;8.430;2023-09-08T11:35:26;6.82;;;4.72;;
4575;SDS011;2300;51.874;8.430;2023-09-08T11:37:58;6.07;;;4.70;;
4575;SDS011;2300;51.874;8.430;2023-09-08T11:40:26;5.70;;;4.40;;
4575;SDS011;2300;51.874;8.430;2023-09-08T11:42:54;7.75;;;4.20;;
4575;SDS011;2300;51.874;8.430;2023-09-08T11:45:21;6.05;;;3.90;;
4575;SDS011;2300;51.874;8.430;2023-09-08T11:47:48;8.27;;;5.03;;
4575;SDS011;2300;51.874;8.430;2023-09-08T11:50:16;5.47;;;4.32;;
4575;SDS011;2300;51.874;8.430;2023-09-08T11:52:45;7.15;;;4.65;;
4575;SDS011;2300;51.874;8.430;2023-09-08T11:55:12;5.75;;;3.92;;
4575;SDS011;2300;51.874;8.430;2023-09-08T11:57:39;7.15;;;4.47;;
4575;SDS011;2300;51.874;8.430;2023-09-08T12:00:11;7.18;;;4.35;;
4575;SDS011;2300;51.874;8.430;2023-09-08T12:02:41;7.30;;;4.22;;
4575;SDS011;2300;51.874;8.430;2023-09-08T12:05:11;6.78;;;4.40;;
4575;SDS011;2300;51.874;8.430;2023-09-08T12:07:38;6.35;;;4.25;;
4575;SDS011;2300;51.874;8.430;2023-09-08T12:10:09;7.43;;;5.15;;
4575;SDS011;2300;51.874;8.430;2023-09-08T12:12:43;7.97;;;4.25;;
4575;SDS011;2300;51.874;8.430;2023-09-08T12:15:12;5.95;;;4.10;;
4575;SDS011;2300;51.874;8.430;2023-09-08T12:17:55;6.95;;;3.85;;
4575;SDS011;2300;51.874;8.430;2023-09-08T12:20:22;5.18;;;4.25;;
4575;SDS011;2300;51.874;8.430;2023-09-08T12:22:49;6.53;;;3.83;;
4575;SDS011;2300;51.874;8.430;2023-09-08T12:25:16;7.45;;;4.13;;
4575;SDS011;2300;51.874;8.430;2023-09-08T12:27:44;5.82;;;3.80;;
4575;SDS011;2300;51.874;8.430;2023-09-08T12:30:15;4.68;;;3.95;;
4575;SDS011;2300;51.874;8.430;2023-09-08T12:32:44;5.50;;;3.90;;
4575;SDS011;2300;51.874;8.430;2023-09-08T12:35:12;7.07;;;3.70;;
4575;SDS011;2300;51.874;8.430;2023-09-08T12:37:39;6.05;;;4.38;;
4575;SDS011;2300;51.874;8.430;2023-09-08T12:40:07;5.85;;;3.95;;
4575;SDS011;2300;51.874;8.430;2023-09-08T12:42:35;5.90;;;4.07;;
4575;SDS011;2300;51.874;8.430;2023-09-08T12:45:02;5.43;;;3.88;;
4575;SDS011;2300;51.874;8.430;2023-09-08T12:47:30;4.88;;;4.07;;
4575;SDS011;2300;51.874;8.430;2023-09-08T12:49:57;8.88;;;3.97;;
4575;SDS011;2300;51.874;8.430;2023-09-08T12:52:24;7.40;;;4.32;;
4575;SDS011;2300;51.874;8.430;2023-09-08T12:54:51;5.32;;;3.75;;
4575;SDS011;2300;51.874;8.430;2023-09-08T12:57:18;8.75;;;4.45;;
4575;SDS011;2300;51.874;8.430;2023-09-08T12:59:45;7.07;;;4.00;;
4575;SDS011;2300;51.874;8.430;2023-09-08T13:02:12;6.35;;;4.15;;
4575;SDS011;2300;51.874;8.430;2023-09-08T13:04:40;6.28;;;4.32;;
4575;SDS011;2300;51.874;8.430;2023-09-08T13:07:13;9.70;;;4.55;;
4575;SDS011;2300;51.874;8.430;2023-09-08T13:09:40;8.43;;;4.10;;
4575;SDS011;2300;51.874;8.430;2023-09-08T13:12:06;5.65;;;4.10;;
4575;SDS011;2300;51.874;8.430;2023-09-08T13:14:34;5.15;;;4.00;;
4575;SDS011;2300;51.874;8.430;2023-09-08T13:17:01;7.70;;;4.32;;
4575;SDS011;2300;51.874;8.430;2023-09-08T13:19:28;6.10;;;4.30;;
4575;SDS011;2300;51.874;8.430;2023-09-08T13:21:59;5.53;;;4.35;;
4575;SDS011;2300;51.874;8.430;2023-09-08T13:24:26;7.20;;;3.70;;
4575;SDS011;2300;51.874;8.430;2023-09-08T13:26:53;7.40;;;4.10;;
4575;SDS011;2300;51.874;8.430;2023-09-08T13:29:19;7.45;;;4.10;;
4575;SDS011;2300;51.874;8.430;2023-09-08T13:31:48;5.50;;;4.32;;
4575;SDS011;2300;51.874;8.430;2023-09-08T13:34:14;8.45;;;4.50;;
4575;SDS011;2300;51.874;8.430;2023-09-08T13:36:41;5.53;;;4.50;;
4575;SDS011;2300;51.874;8.430;2023-09-08T13:39:12;9.55;;;5.32;;
4575;SDS011;2300;51.874;8.430;2023-09-08T13:41:44;8.00;;;4.30;;
4575;SDS011;2300;51.874;8.430;2023-09-08T13:44:12;7.07;;;4.63;;
4575;SDS011;2300;51.874;8.430;2023-09-08T13:46:39;6.63;;;4.22;;
4575;SDS011;2300;51.874;8.430;2023-09-08T13:49:05;7.97;;;4.22;;
4575;SDS011;2300;51.874;8.430;2023-09-08T13:51:32;7.15;;;5.13;;
4575;SDS011;2300;51.874;8.430;2023-09-08T13:53:59;9.40;;;4.30;;
4575;SDS011;2300;51.874;8.430;2023-09-08T13:56:27;6.25;;;4.35;;
4575;SDS011;2300;51.874;8.430;2023-09-08T13:58:54;12.13;;;4.82;;
4575;SDS011;2300;51.874;8.430;2023-09-08T14:01:20;5.65;;;4.53;;
4575;SDS011;2300;51.874;8.430;2023-09-08T14:03:47;6.20;;;4.63;;
4575;SDS011;2300;51.874;8.430;2023-09-08T14:06:16;7.45;;;4.45;;
4575;SDS011;2300;51.874;8.430;2023-09-08T14:08:43;6.43;;;4.65;;
4575;SDS011;2300;51.874;8.430;2023-09-08T14:11:10;5.85;;;4.40;;
4575;SDS011;2300;51.874;8.430;2023-09-08T14:13:38;6.10;;;4.50;;
4575;SDS011;2300;51.874;8.430;2023-09-08T14:16:05;6.13;;;4.20;;
4575;SDS011;2300;51.874;8.430;2023-09-08T14:18:32;5.45;;;4.00;;
4575;SDS011;2300;51.874;8.430;2023-09-08T14:21:00;6.97;;;4.65;;
4575;SDS011;2300;51.874;8.430;2023-09-08T14:23:27;8.80;;;4.63;;
4575;SDS011;2300;51.874;8.430;2023-09-08T14:25:55;7.70;;;4.53;;
4575;SDS011;2300;51.874;8.430;2023-09-08T14:28:24;8.32;;;4.45;;
4575;SDS011;2300;51.874;8.430;2023-09-08T14:30:52;7.13;;;4.38;;
4575;SDS011;2300;51.874;8.430;2023-09-08T14:33:19;7.85;;;5.05;;
4575;SDS011;2300;51.874;8.430;2023-09-08T14:35:46;8.38;;;4.35;;
4575;SDS011;2300;51.874;8.430;2023-09-08T14:38:16;9.65;;;4.40;;
4575;SDS011;2300;51.874;8.430;2023-09-08T14:40:44;7.32;;;4.60;;
4575;SDS011;2300;51.874;8.430;2023-09-08T14:43:20;8.30;;;4.35;;
4575;SDS011;2300;51.874;8.430;2023-09-08T14:45:46;5.22;;;3.90;;
4575;SDS011;2300;51.874;8.430;2023-09-08T14:48:15;6.22;;;4.10;;
4575;SDS011;2300;51.874;8.430;2023-09-08T14:50:42;8.27;;;4.82;;
4575;SDS011;2300;51.874;8.430;2023-09-08T14:53:09;8.13;;;4.45;;
4575;SDS011;2300;51.874;8.430;2023-09-08T14:55:36;6.63;;;4.00;;
4575;SDS011;2300;51.874;8.430;2023-09-08T14:58:03;6.75;;;4.45;;
4575;SDS011;2300;51.874;8.430;2023-09-08T15:00:30;5.63;;;4.25;;
4575;SDS011;2300;51.874;8.430;2023-09-08T15:02:56;5.78;;;4.60;;
4575;SDS011;2300;51.874;8.430;2023-09-08T15:05:24;5.10;;;4.20;;
4575;SDS011;2300;51.874;8.430;2023-09-08T15:07:51;7.93;;;4.78;;
4575;SDS011;2300;51.874;8.430;2023-09-08T15:10:17;9.10;;;4.45;;
4575;SDS011;2300;51.874;8.430;2023-09-08T15:12:45;8.93;;;4.47;;
4575;SDS011;2300;51.874;8.430;2023-09-08T15:15:11;7.95;;;4.63;;
4575;SDS011;2300;51.874;8.430;2023-09-08T15:17:38;6.18;;;4.32;;
4575;SDS011;2300;51.874;8.430;2023-09-08T15:20:05;5.75;;;4.25;;